Time;durP1;ratioP1;P1;durP2;ratioP2;P2;SDS_P1;SDS_P2;PMS_P1;PMS_P2;Temp;Humidity;BMP_temperature;BMP_pressure;BME280_temperature;BME280_humidity;BME280_pressure;Samples;Min_cycle;Max_cycle;Signal;HPM_P1;HPM_P2
2023/06/15 00:00:13;;;;;;;6.07;3.00;;;;;;;;;;6287148;28;20583;-70
2023/06/15 00:03:19;;;;;;;4.35;3.75;;;;;;;;;;6286454;28;20271;-69
2023/06/15 00:06:23;;;;;;;5.25;3.38;;;;;;;;;;6287482;28;20486;-69
2023/06/15 00:09:30;;;;;;;45.63;6.45;;;;;;;;;;6287665;28;20295;-69
2023/06/15 00:12:34;;;;;;;58.75;7.43;;;;;;;;;;6287735;28;20264;-70
2023/06/15 00:15:40;;;;;;;42.70;6.43;;;;;;;;;;6287150;28;20300;-70
2023/06/15 00:18:47;;;;;;;31.20;5.47;;;;;;;;;;6286716;28;20235;-71
2023/06/15 00:21:53;;;;;;;20.08;5.35;;;;;;;;;;6286663;28;20287;-71
2023/06/15 00:24:59;;;;;;;12.20;4.47;;;;;;;;;;6286201;28;20290;-69
2023/06/15 00:28:04;;;;;;;5.30;4.07;;;;;;;;;;6286481;28;20238;-70
2023/06/15 00:31:09;;;;;;;20.00;4.20;;;;;;;;;;6286163;28;20306;-70
2023/06/15 00:34:14;;;;;;;29.33;5.10;;;;;;;;;;6285857;28;20438;-70
2023/06/15 00:37:19;;;;;;;22.90;4.78;;;;;;;;;;6285202;28;20516;-70
2023/06/15 00:40:26;;;;;;;13.25;4.65;;;;;;;;;;6285751;28;20294;-70
2023/06/15 00:43:30;;;;;;;13.65;5.75;;;;;;;;;;6286371;28;20257;-70
2023/06/15 00:46:35;;;;;;;40.95;5.32;;;;;;;;;;6285929;28;20291;-70
2023/06/15 00:49:41;;;;;;;28.02;5.10;;;;;;;;;;6284885;28;20574;-71
2023/06/15 00:52:47;;;;;;;22.38;4.63;;;;;;;;;;6285919;28;20239;-70
2023/06/15 00:55:53;;;;;;;19.70;5.07;;;;;;;;;;6286448;28;20575;-70
2023/06/15 00:58:58;;;;;;;12.45;4.38;;;;;;;;;;6286705;28;20231;-70
2023/06/15 01:02:03;;;;;;;14.25;3.72;;;;;;;;;;6285650;28;20294;-69
2023/06/15 01:05:10;;;;;;;6.90;3.97;;;;;;;;;;6284027;28;20314;-71
2023/06/15 01:08:16;;;;;;;3.83;3.53;;;;;;;;;;6300563;28;20287;-69
2023/06/15 01:11:23;;;;;;;6.10;4.00;;;;;;;;;;6285283;28;20291;-70
2023/06/15 01:14:29;;;;;;;6.55;3.55;;;;;;;;;;6260431;28;20311;-70
2023/06/15 01:17:34;;;;;;;6.20;3.60;;;;;;;;;;6260861;28;20241;-70
2023/06/15 01:20:40;;;;;;;4.82;3.63;;;;;;;;;;6264946;28;20295;-69
2023/06/15 01:24:03;;;;;;;3.95;3.65;;;;;;;;;;6285322;28;20232;-70
2023/06/15 01:27:09;;;;;;;4.18;3.88;;;;;;;;;;6285089;28;20291;-70
2023/06/15 01:30:15;;;;;;;5.38;3.97;;;;;;;;;;6284814;28;20299;-71
2023/06/15 01:33:20;;;;;;;4.13;3.70;;;;;;;;;;6283866;28;20562;-70
2023/06/15 01:36:24;;;;;;;4.50;4.05;;;;;;;;;;6283758;28;20481;-70
2023/06/15 01:39:29;;;;;;;5.95;3.92;;;;;;;;;;6283491;28;20290;-69
2023/06/15 01:42:36;;;;;;;4.65;3.60;;;;;;;;;;6284183;28;20287;-69
2023/06/15 01:45:41;;;;;;;27.27;5.70;;;;;;;;;;6283072;28;20295;-69
2023/06/15 01:48:46;;;;;;;53.38;7.50;;;;;;;;;;6284223;28;20567;-71
2023/06/15 01:51:52;;;;;;;65.65;8.52;;;;;;;;;;6284118;28;20559;-70
2023/06/15 01:54:56;;;;;;;57.83;8.27;;;;;;;;;;6283218;28;20339;-71
2023/06/15 01:58:03;;;;;;;46.90;6.45;;;;;;;;;;6284980;28;20235;-70
2023/06/15 02:01:08;;;;;;;54.75;7.78;;;;;;;;;;6283165;28;20290;-71
2023/06/15 02:04:12;;;;;;;55.40;7.45;;;;;;;;;;6283139;28;20275;-73
2023/06/15 02:07:17;;;;;;;61.65;8.25;;;;;;;;;;6285202;28;20254;-70
2023/06/15 02:10:23;;;;;;;33.65;7.63;;;;;;;;;;6282974;28;20295;-70
2023/06/15 02:13:29;;;;;;;28.95;5.97;;;;;;;;;;6283113;28;20266;-70
2023/06/15 02:16:35;;;;;;;9.60;4.78;;;;;;;;;;6282597;28;20571;-69
2023/06/15 02:19:39;;;;;;;14.73;4.15;;;;;;;;;;6284299;28;20290;-69
2023/06/15 02:22:44;;;;;;;9.10;4.72;;;;;;;;;;6282765;28;20275;-70
2023/06/15 02:25:50;;;;;;;9.35;4.05;;;;;;;;;;6284276;28;20291;-69
2023/06/15 02:28:56;;;;;;;14.07;4.35;;;;;;;;;;6282569;28;20526;-70
2023/06/15 02:32:01;;;;;;;15.70;4.93;;;;;;;;;;6282870;28;20315;-69
2023/06/15 02:35:08;;;;;;;19.17;4.90;;;;;;;;;;6284388;28;20287;-71
2023/06/15 02:38:13;;;;;;;16.10;4.85;;;;;;;;;;6283571;28;20267;-70
2023/06/15 02:41:18;;;;;;;10.45;4.40;;;;;;;;;;6282861;28;20299;-70
2023/06/15 02:44:24;;;;;;;10.18;4.38;;;;;;;;;;6284373;28;20263;-71
2023/06/15 02:47:30;;;;;;;7.72;4.30;;;;;;;;;;6283066;28;20291;-70
2023/06/15 02:50:36;;;;;;;5.97;4.45;;;;;;;;;;6282429;28;20299;-69
2023/06/15 02:53:47;;;;;;;7.13;4.25;;;;;;;;;;6283377;28;20275;-72
2023/06/15 02:56:53;;;;;;;10.43;4.13;;;;;;;;;;6282593;28;20298;-70
2023/06/15 03:00:05;;;;;;;8.48;4.10;;;;;;;;;;6282692;28;20431;-69
2023/06/15 03:03:14;;;;;;;6.82;4.68;;;;;;;;;;6284528;28;20263;-71
2023/06/15 03:06:24;;;;;;;14.65;4.32;;;;;;;;;;6287393;28;20278;-69
2023/06/15 03:09:31;;;;;;;6.88;4.38;;;;;;;;;;6286805;28;20552;-69
2023/06/15 03:12:36;;;;;;;7.45;4.22;;;;;;;;;;6288621;28;20243;-70
2023/06/15 03:15:42;;;;;;;8.50;4.50;;;;;;;;;;6287914;28;20303;-70
2023/06/15 03:18:47;;;;;;;5.78;3.95;;;;;;;;;;6286759;28;20291;-70
2023/06/15 03:21:53;;;;;;;5.53;4.05;;;;;;;;;;6287492;28;20370;-69
2023/06/15 03:24:59;;;;;;;11.27;3.80;;;;;;;;;;6286249;28;20300;-70
2023/06/15 03:28:04;;;;;;;7.63;4.70;;;;;;;;;;6286962;28;20267;-70
2023/06/15 03:31:17;;;;;;;8.82;4.18;;;;;;;;;;6285374;28;20299;-69
2023/06/15 03:34:24;;;;;;;4.05;3.70;;;;;;;;;;6285843;28;20362;-70
2023/06/15 03:37:29;;;;;;;4.38;4.15;;;;;;;;;;6278454;28;20271;-70
2023/06/15 03:40:39;;;;;;;6.63;4.20;;;;;;;;;;6261585;28;20499;-69
2023/06/15 03:43:44;;;;;;;6.85;4.00;;;;;;;;;;6277549;28;20288;-69
2023/06/15 03:46:50;;;;;;;6.75;4.18;;;;;;;;;;6261615;28;20276;-71
2023/06/15 03:49:55;;;;;;;4.60;4.07;;;;;;;;;;6261337;28;20328;-71
2023/06/15 03:53:01;;;;;;;7.63;3.97;;;;;;;;;;6261840;28;20268;-71
2023/06/15 03:56:06;;;;;;;5.03;4.00;;;;;;;;;;6279787;28;20311;-69
2023/06/15 03:59:11;;;;;;;4.43;3.90;;;;;;;;;;6260846;28;20300;-70
2023/06/15 04:02:18;;;;;;;8.45;4.10;;;;;;;;;;6261060;28;20267;-70
2023/06/15 04:05:22;;;;;;;10.57;4.15;;;;;;;;;;6294103;28;20291;-70
2023/06/15 04:08:28;;;;;;;10.93;4.03;;;;;;;;;;6277174;28;20267;-72
2023/06/15 04:11:32;;;;;;;7.93;4.22;;;;;;;;;;6309383;28;20543;-70
2023/06/15 04:14:37;;;;;;;15.73;4.53;;;;;;;;;;6286264;28;20299;-69
2023/06/15 04:17:48;;;;;;;22.90;5.15;;;;;;;;;;6286125;28;20295;-70
2023/06/15 04:20:54;;;;;;;13.10;5.18;;;;;;;;;;6301960;28;20312;-71
2023/06/15 04:23:58;;;;;;;7.50;4.30;;;;;;;;;;6285378;28;20307;-69
2023/06/15 04:27:03;;;;;;;17.83;4.85;;;;;;;;;;6287315;28;20248;-69
2023/06/15 04:30:09;;;;;;;6.70;4.15;;;;;;;;;;6284269;28;20319;-70
2023/06/15 04:33:16;;;;;;;4.35;3.95;;;;;;;;;;6285335;28;20267;-69
2023/06/15 04:36:21;;;;;;;3.33;3.20;;;;;;;;;;6286003;28;20290;-71
2023/06/15 04:39:28;;;;;;;3.42;3.22;;;;;;;;;;6282918;28;20294;-69
2023/06/15 04:42:40;;;;;;;3.38;3.28;;;;;;;;;;6302510;28;20267;-70
2023/06/15 04:45:47;;;;;;;3.42;3.17;;;;;;;;;;6284271;28;20294;-70
2023/06/15 04:48:58;;;;;;;3.65;3.40;;;;;;;;;;6285128;28;20290;-70
2023/06/15 04:52:02;;;;;;;3.45;3.17;;;;;;;;;;6287084;28;20243;-70
2023/06/15 04:55:12;;;;;;;4.32;3.22;;;;;;;;;;6284886;28;20291;-69
2023/06/15 04:58:18;;;;;;;6.80;3.20;;;;;;;;;;6301080;28;20456;-70
2023/06/15 05:01:24;;;;;;;3.25;3.05;;;;;;;;;;6285329;28;20300;-70
2023/06/15 05:04:31;;;;;;;5.47;3.30;;;;;;;;;;6284381;28;20300;-71
2023/06/15 05:07:36;;;;;;;3.75;3.25;;;;;;;;;;6284745;28;20311;-70
2023/06/15 05:10:40;;;;;;;2.83;2.70;;;;;;;;;;6285875;28;20598;-68
2023/06/15 05:13:54;;;;;;;4.30;2.67;;;;;;;;;;6283869;28;20291;-70
2023/06/15 05:17:03;;;;;;;4.43;3.08;;;;;;;;;;6285119;28;20296;-71
2023/06/15 05:20:11;;;;;;;3.90;3.35;;;;;;;;;;6284639;28;20295;-70
2023/06/15 05:23:18;;;;;;;6.05;3.03;;;;;;;;;;6285189;28;20239;-70
2023/06/15 05:26:25;;;;;;;4.70;3.38;;;;;;;;;;6284113;28;20363;-70
2023/06/15 05:29:39;;;;;;;5.38;3.40;;;;;;;;;;6283384;28;20311;-70
2023/06/15 05:32:47;;;;;;;3.33;3.00;;;;;;;;;;6284643;28;20259;-70
2023/06/15 05:35:54;;;;;;;3.33;3.03;;;;;;;;;;6300802;28;20307;-70
2023/06/15 05:38:59;;;;;;;4.93;3.33;;;;;;;;;;6283894;28;20295;-71
2023/06/15 05:42:04;;;;;;;4.78;2.90;;;;;;;;;;6300823;28;20274;-70
2023/06/15 05:45:11;;;;;;;6.72;2.90;;;;;;;;;;6283822;28;20323;-69
2023/06/15 05:48:20;;;;;;;5.20;2.70;;;;;;;;;;6284133;28;20291;-70
2023/06/15 05:51:27;;;;;;;3.05;2.83;;;;;;;;;;6284443;28;20271;-70
2023/06/15 05:54:31;;;;;;;2.67;2.58;;;;;;;;;;6283952;28;20303;-70
2023/06/15 05:57:36;;;;;;;2.60;2.45;;;;;;;;;;6284056;28;20287;-71
2023/06/15 06:00:40;;;;;;;3.20;2.90;;;;;;;;;;6284934;28;20319;-71
2023/06/15 06:03:45;;;;;;;17.00;2.67;;;;;;;;;;6284974;28;20291;-71
2023/06/15 06:06:51;;;;;;;3.40;2.40;;;;;;;;;;6284251;28;20274;-71
2023/06/15 06:09:57;;;;;;;2.65;2.45;;;;;;;;;;6283459;28;20286;-71
2023/06/15 06:13:01;;;;;;;2.50;2.40;;;;;;;;;;6284423;28;20274;-70
2023/06/15 06:16:06;;;;;;;4.45;2.60;;;;;;;;;;6283543;28;20595;-70
2023/06/15 06:19:11;;;;;;;2.47;2.45;;;;;;;;;;6285087;28;20587;-70
2023/06/15 06:22:18;;;;;;;2.58;2.38;;;;;;;;;;6284264;28;20268;-70
2023/06/15 06:25:23;;;;;;;2.33;2.22;;;;;;;;;;6283393;28;20466;-71
2023/06/15 06:28:28;;;;;;;2.40;2.40;;;;;;;;;;6282985;28;20433;-69
2023/06/15 06:31:33;;;;;;;2.65;2.55;;;;;;;;;;6284871;28;20244;-69
2023/06/15 06:34:38;;;;;;;5.28;2.70;;;;;;;;;;6284653;28;20445;-71
2023/06/15 06:37:47;;;;;;;2.40;2.30;;;;;;;;;;6288100;28;20267;-70
2023/06/15 06:40:52;;;;;;;2.10;2.10;;;;;;;;;;6289694;28;20290;-71
2023/06/15 06:43:57;;;;;;;2.70;2.50;;;;;;;;;;6289302;28;20287;-70
2023/06/15 06:47:02;;;;;;;2.95;2.40;;;;;;;;;;6288523;28;20270;-71
2023/06/15 06:50:08;;;;;;;4.00;2.55;;;;;;;;;;6289350;28;20295;-70
2023/06/15 06:53:14;;;;;;;7.05;2.75;;;;;;;;;;6289236;28;20524;-71
2023/06/15 06:56:19;;;;;;;3.53;2.67;;;;;;;;;;6290448;28;20261;-70
2023/06/15 06:59:23;;;;;;;5.90;2.92;;;;;;;;;;6288980;28;20498;-69
2023/06/15 07:02:46;;;;;;;3.22;2.67;;;;;;;;;;6289475;28;20240;-73
2023/06/15 07:05:51;;;;;;;4.95;3.08;;;;;;;;;;6288893;28;20303;-70
2023/06/15 07:09:16;;;;;;;3.92;2.83;;;;;;;;;;6288782;28;20298;-70
2023/06/15 07:12:21;;;;;;;2.83;2.78;;;;;;;;;;6288899;28;20236;-72
2023/06/15 07:15:27;;;;;;;3.45;3.10;;;;;;;;;;6288673;28;20294;-70
2023/06/15 07:18:32;;;;;;;2.80;2.60;;;;;;;;;;6288412;28;20299;-70
2023/06/15 07:21:37;;;;;;;6.43;3.13;;;;;;;;;;6289126;28;20231;-70
2023/06/15 07:24:44;;;;;;;2.67;2.53;;;;;;;;;;6288659;28;20295;-70
2023/06/15 07:27:48;;;;;;;5.30;3.00;;;;;;;;;;6289108;28;20240;-70
2023/06/15 07:30:53;;;;;;;4.43;3.17;;;;;;;;;;6287642;28;20307;-70
2023/06/15 07:33:57;;;;;;;3.38;3.10;;;;;;;;;;6287977;28;20290;-70
2023/06/15 07:37:02;;;;;;;3.13;3.03;;;;;;;;;;6288809;28;20239;-72
2023/06/15 07:40:10;;;;;;;3.22;2.88;;;;;;;;;;6288147;28;20302;-71
2023/06/15 07:43:15;;;;;;;4.93;3.10;;;;;;;;;;6287505;28;20231;-71
2023/06/15 07:46:20;;;;;;;11.82;3.53;;;;;;;;;;6288650;28;20232;-70
2023/06/15 07:49:25;;;;;;;6.78;3.20;;;;;;;;;;6286935;28;20319;-70
2023/06/15 07:52:49;;;;;;;4.30;3.20;;;;;;;;;;6288394;28;20263;-71
2023/06/15 07:55:56;;;;;;;8.18;3.72;;;;;;;;;;6287425;28;20287;-70
2023/06/15 07:59:00;;;;;;;8.15;3.80;;;;;;;;;;6286062;28;20473;-70
2023/06/15 08:02:05;;;;;;;3.90;3.30;;;;;;;;;;6288092;28;20239;-73
2023/06/15 08:05:10;;;;;;;3.15;2.95;;;;;;;;;;6287124;28;20299;-71
2023/06/15 08:08:16;;;;;;;4.10;3.40;;;;;;;;;;6286877;28;20252;-70
2023/06/15 08:11:22;;;;;;;5.75;3.63;;;;;;;;;;6287284;28;20443;-70
2023/06/15 08:14:27;;;;;;;6.45;3.50;;;;;;;;;;6287368;28;20310;-70
2023/06/15 08:17:31;;;;;;;19.85;5.07;;;;;;;;;;6287131;28;20350;-70
2023/06/15 08:20:36;;;;;;;4.25;2.55;;;;;;;;;;6286868;28;20295;-70
2023/06/15 08:23:40;;;;;;;5.53;3.17;;;;;;;;;;6286678;28;20282;-70
2023/06/15 08:26:48;;;;;;;3.10;2.90;;;;;;;;;;6287406;28;20235;-70
2023/06/15 08:29:54;;;;;;;9.18;3.88;;;;;;;;;;6286477;28;20298;-71
2023/06/15 08:32:58;;;;;;;10.00;3.30;;;;;;;;;;6287668;28;20411;-72
2023/06/15 08:36:03;;;;;;;3.60;3.40;;;;;;;;;;6286964;28;20303;-71
2023/06/15 08:39:08;;;;;;;3.63;3.33;;;;;;;;;;6286893;28;20300;-70
2023/06/15 08:42:14;;;;;;;3.90;3.22;;;;;;;;;;6287466;28;20256;-70
2023/06/15 08:45:20;;;;;;;3.58;3.38;;;;;;;;;;6286640;28;20484;-70
2023/06/15 08:48:24;;;;;;;3.78;3.67;;;;;;;;;;6286721;28;20240;-70
2023/06/15 08:51:29;;;;;;;3.28;3.05;;;;;;;;;;6286809;28;20239;-71
2023/06/15 08:54:35;;;;;;;4.03;3.13;;;;;;;;;;6285416;28;20318;-71
2023/06/15 08:57:41;;;;;;;3.83;3.47;;;;;;;;;;6286988;28;20303;-70
2023/06/15 09:00:46;;;;;;;5.10;3.78;;;;;;;;;;6286162;28;20299;-69
2023/06/15 09:03:52;;;;;;;3.95;3.67;;;;;;;;;;6284888;28;20286;-71
2023/06/15 09:06:59;;;;;;;3.85;3.60;;;;;;;;;;6286822;28;20252;-69
2023/06/15 09:10:14;;;;;;;3.75;3.58;;;;;;;;;;6285629;28;20518;-68
2023/06/15 09:13:21;;;;;;;4.35;4.03;;;;;;;;;;6285645;28;20260;-69
2023/06/15 09:16:26;;;;;;;4.00;3.72;;;;;;;;;;6285899;28;20493;-70
2023/06/15 09:19:37;;;;;;;4.82;4.40;;;;;;;;;;6285662;28;20656;-70
2023/06/15 09:22:43;;;;;;;3.90;3.75;;;;;;;;;;6286058;28;20240;-68
2023/06/15 09:25:52;;;;;;;4.45;4.18;;;;;;;;;;6285636;28;20290;-69
2023/06/15 09:29:01;;;;;;;3.90;3.60;;;;;;;;;;6285090;28;20291;-70
2023/06/15 09:32:06;;;;;;;3.70;3.50;;;;;;;;;;6286638;28;20255;-70
2023/06/15 09:35:11;;;;;;;4.28;3.65;;;;;;;;;;6285163;28;20306;-71
2023/06/15 09:38:15;;;;;;;6.38;3.80;;;;;;;;;;6284926;28;20275;-70
2023/06/15 09:41:20;;;;;;;9.68;4.07;;;;;;;;;;6285669;28;20247;-70
2023/06/15 09:44:26;;;;;;;4.32;3.78;;;;;;;;;;6285178;28;20602;-70
2023/06/15 09:47:31;;;;;;;3.78;3.58;;;;;;;;;;6285568;28;20399;-69
2023/06/15 09:50:36;;;;;;;4.00;3.80;;;;;;;;;;6284997;28;20599;-70
2023/06/15 09:53:43;;;;;;;6.28;4.20;;;;;;;;;;6284889;28;20290;-70
2023/06/15 09:56:50;;;;;;;4.75;4.32;;;;;;;;;;6285720;28;20248;-69
2023/06/15 09:59:56;;;;;;;4.72;4.53;;;;;;;;;;6284938;28;20546;-69
2023/06/15 10:03:01;;;;;;;4.82;4.35;;;;;;;;;;6285482;28;20239;-71
2023/06/15 10:06:10;;;;;;;7.82;4.22;;;;;;;;;;6284950;28;20485;-70
2023/06/15 10:09:18;;;;;;;4.07;3.78;;;;;;;;;;6284763;28;20296;-70
2023/06/15 10:12:25;;;;;;;6.63;3.85;;;;;;;;;;6287619;28;20433;-71
2023/06/15 10:15:32;;;;;;;4.78;4.25;;;;;;;;;;6273212;28;20291;-70
2023/06/15 10:18:39;;;;;;;4.72;4.53;;;;;;;;;;6264999;28;20572;-69
2023/06/15 10:21:46;;;;;;;9.48;5.70;;;;;;;;;;6265052;28;20240;-69
2023/06/15 10:24:51;;;;;;;5.97;5.20;;;;;;;;;;6264775;28;20295;-69
2023/06/15 10:27:56;;;;;;;4.90;4.50;;;;;;;;;;6265073;28;20240;-69
2023/06/15 10:31:05;;;;;;;20.85;4.90;;;;;;;;;;6264957;28;20372;-70
2023/06/15 10:34:14;;;;;;;5.47;4.30;;;;;;;;;;6264853;28;20300;-71
2023/06/15 10:37:23;;;;;;;4.32;3.90;;;;;;;;;;6265538;28;20248;-69
2023/06/15 10:40:30;;;;;;;4.30;4.00;;;;;;;;;;6264406;28;20288;-69
2023/06/15 10:43:35;;;;;;;4.28;4.07;;;;;;;;;;6264552;28;20311;-70
2023/06/15 10:46:41;;;;;;;4.70;3.80;;;;;;;;;;6266932;28;20240;-71
2023/06/15 10:49:50;;;;;;;4.55;4.05;;;;;;;;;;6266384;28;20299;-70
2023/06/15 10:52:56;;;;;;;4.13;3.65;;;;;;;;;;6266802;28;20232;-70
2023/06/15 10:56:00;;;;;;;9.32;3.90;;;;;;;;;;6266158;28;20295;-70
2023/06/15 10:59:05;;;;;;;13.10;3.80;;;;;;;;;;6265738;28;20472;-69
2023/06/15 11:02:47;;;;;;;3.72;3.53;;;;;;;;;;6266028;28;20244;-71
2023/06/15 11:06:07;;;;;;;4.15;3.55;;;;;;;;;;6265809;28;20296;-69
2023/06/15 11:09:14;;;;;;;3.53;3.25;;;;;;;;;;6265375;28;20300;-69
2023/06/15 11:12:34;;;;;;;14.25;3.97;;;;;;;;;;6286771;28;20248;-70
2023/06/15 11:15:41;;;;;;;124.18;9.90;;;;;;;;;;6289148;28;20322;-70
2023/06/15 11:19:22;;;;;;;22.17;4.35;;;;;;;;;;6289799;28;20359;-70
2023/06/15 11:22:30;;;;;;;4.32;4.00;;;;;;;;;;6289549;28;20267;-71
2023/06/15 11:25:36;;;;;;;3.53;3.33;;;;;;;;;;6290179;28;20304;-69
2023/06/15 11:28:41;;;;;;;8.27;3.58;;;;;;;;;;6287088;28;20442;-71
2023/06/15 11:31:45;;;;;;;3.42;3.22;;;;;;;;;;6288819;28;20235;-71
2023/06/15 11:34:50;;;;;;;12.30;3.65;;;;;;;;;;6288551;28;20600;-70
2023/06/15 11:37:56;;;;;;;3.38;3.13;;;;;;;;;;6288409;28;20248;-70
2023/06/15 11:41:02;;;;;;;4.07;3.63;;;;;;;;;;6288347;28;20303;-73
2023/06/15 11:44:10;;;;;;;4.72;3.90;;;;;;;;;;6288158;28;20296;-70
2023/06/15 11:47:15;;;;;;;10.02;4.20;;;;;;;;;;6288661;28;20239;-71
2023/06/15 11:50:22;;;;;;;3.88;3.60;;;;;;;;;;6287770;28;20299;-70
2023/06/15 11:53:28;;;;;;;5.68;3.72;;;;;;;;;;6287567;28;20243;-72
2023/06/15 11:56:33;;;;;;;6.95;3.30;;;;;;;;;;6287918;28;20248;-71
2023/06/15 11:59:38;;;;;;;12.20;4.18;;;;;;;;;;6287072;28;20587;-70
2023/06/15 12:02:43;;;;;;;5.80;3.63;;;;;;;;;;6287783;28;20244;-71
2023/06/15 12:05:57;;;;;;;3.60;3.40;;;;;;;;;;6287150;28;20294;-70
2023/06/15 12:09:06;;;;;;;4.80;3.63;;;;;;;;;;6285874;28;20430;-71
2023/06/15 12:12:29;;;;;;;8.02;4.15;;;;;;;;;;6287768;28;20239;-70
2023/06/15 12:15:34;;;;;;;3.80;3.47;;;;;;;;;;6287331;28;20423;-71
2023/06/15 12:18:38;;;;;;;3.53;3.38;;;;;;;;;;6286496;28;20291;-71
2023/06/15 12:21:43;;;;;;;3.90;3.58;;;;;;;;;;6286977;28;20559;-71
2023/06/15 12:24:50;;;;;;;10.32;4.15;;;;;;;;;;6286833;28;20290;-70
2023/06/15 12:27:55;;;;;;;5.68;3.88;;;;;;;;;;6287101;28;20255;-71
2023/06/15 12:31:06;;;;;;;10.80;3.55;;;;;;;;;;6286868;28;20307;-72
2023/06/15 12:34:11;;;;;;;3.47;3.28;;;;;;;;;;6284684;28;20357;-70
2023/06/15 12:37:16;;;;;;;3.47;3.22;;;;;;;;;;6287037;28;20243;-71
2023/06/15 12:40:23;;;;;;;6.85;3.75;;;;;;;;;;6286247;28;20307;-70
2023/06/15 12:43:28;;;;;;;3.58;3.38;;;;;;;;;;6286544;28;20239;-71
2023/06/15 12:46:34;;;;;;;4.05;3.65;;;;;;;;;;6285896;28;20276;-71
2023/06/15 12:49:40;;;;;;;6.32;3.97;;;;;;;;;;6284243;28;20295;-72
2023/06/15 12:52:45;;;;;;;3.72;3.47;;;;;;;;;;6286331;28;20492;-71
2023/06/15 12:55:51;;;;;;;8.98;3.65;;;;;;;;;;6286110;28;20299;-70
2023/06/15 12:58:56;;;;;;;4.20;3.90;;;;;;;;;;6286295;28;20287;-70
2023/06/15 13:02:01;;;;;;;9.23;3.97;;;;;;;;;;6285949;28;20271;-70
2023/06/15 13:05:06;;;;;;;4.18;3.88;;;;;;;;;;6285816;28;20294;-71
2023/06/15 13:08:14;;;;;;;4.35;3.45;;;;;;;;;;6285801;28;20232;-72
2023/06/15 13:11:20;;;;;;;7.57;4.00;;;;;;;;;;6285943;28;20243;-71
2023/06/15 13:14:24;;;;;;;6.22;4.05;;;;;;;;;;6284428;28;20287;-71
2023/06/15 13:17:29;;;;;;;7.65;4.07;;;;;;;;;;6287621;28;20244;-72
2023/06/15 13:20:34;;;;;;;9.85;3.80;;;;;;;;;;6285839;28;20306;-71
2023/06/15 13:23:38;;;;;;;6.30;3.90;;;;;;;;;;6285482;28;20307;-71
2023/06/15 13:26:45;;;;;;;9.20;4.03;;;;;;;;;;6285928;28;20240;-71
2023/06/15 13:29:50;;;;;;;4.22;3.80;;;;;;;;;;6283453;28;20314;-71
2023/06/15 13:32:55;;;;;;;11.32;3.72;;;;;;;;;;6286108;28;20244;-70
2023/06/15 13:35:59;;;;;;;11.05;3.55;;;;;;;;;;6285462;28;20479;-70
2023/06/15 13:39:05;;;;;;;8.40;4.40;;;;;;;;;;6285125;28;20287;-70
2023/06/15 13:42:12;;;;;;;5.90;4.30;;;;;;;;;;6285496;28;20259;-71
2023/06/15 13:45:18;;;;;;;7.63;4.13;;;;;;;;;;6284830;28;20299;-71
2023/06/15 13:48:25;;;;;;;6.25;4.07;;;;;;;;;;6283383;28;20275;-70
2023/06/15 13:51:30;;;;;;;15.13;3.80;;;;;;;;;;6285896;28;20239;-70
2023/06/15 13:54:35;;;;;;;7.97;4.25;;;;;;;;;;6285366;28;20305;-71
2023/06/15 13:57:41;;;;;;;4.32;3.35;;;;;;;;;;6285688;28;20323;-70
2023/06/15 14:00:46;;;;;;;7.35;3.50;;;;;;;;;;6284861;28;20291;-69
2023/06/15 14:03:50;;;;;;;14.68;3.80;;;;;;;;;;6284972;28;20299;-69
2023/06/15 14:06:55;;;;;;;13.32;4.22;;;;;;;;;;6285521;28;20239;-71
2023/06/15 14:10:00;;;;;;;9.82;4.10;;;;;;;;;;6284718;28;20311;-70
2023/06/15 14:13:06;;;;;;;6.25;3.67;;;;;;;;;;6285098;28;20243;-71
2023/06/15 14:16:11;;;;;;;4.43;4.05;;;;;;;;;;6284845;28;20296;-69
2023/06/15 14:19:16;;;;;;;5.85;3.85;;;;;;;;;;6284707;28;20696;-69
2023/06/15 14:22:20;;;;;;;3.97;3.78;;;;;;;;;;6283427;28;20299;-69
2023/06/15 14:25:25;;;;;;;7.43;4.15;;;;;;;;;;6284600;28;20289;-71
2023/06/15 14:28:32;;;;;;;4.82;4.40;;;;;;;;;;6284457;28;20247;-72
2023/06/15 14:31:40;;;;;;;8.45;4.68;;;;;;;;;;6259953;28;20248;-73
2023/06/15 14:34:45;;;;;;;8.90;4.80;;;;;;;;;;6260143;28;20304;-70
2023/06/15 14:37:51;;;;;;;5.13;3.90;;;;;;;;;;6259911;28;20268;-69
2023/06/15 14:40:56;;;;;;;8.82;4.55;;;;;;;;;;6259421;28;20311;-70
2023/06/15 14:44:01;;;;;;;4.18;3.67;;;;;;;;;;6259733;28;20292;-70
2023/06/15 14:47:06;;;;;;;6.85;4.28;;;;;;;;;;6260038;28;20241;-70
2023/06/15 14:50:11;;;;;;;4.63;4.00;;;;;;;;;;6259862;28;20468;-70
2023/06/15 14:53:16;;;;;;;19.88;5.22;;;;;;;;;;6259414;28;20248;-69
2023/06/15 14:56:21;;;;;;;6.65;4.40;;;;;;;;;;6259144;28;20306;-70
2023/06/15 14:59:27;;;;;;;13.32;4.68;;;;;;;;;;6263644;28;20296;-70
2023/06/15 15:02:31;;;;;;;18.77;4.30;;;;;;;;;;6264280;28;20267;-70
2023/06/15 15:05:37;;;;;;;12.95;4.25;;;;;;;;;;6263811;28;20303;-70
2023/06/15 15:08:41;;;;;;;21.92;5.97;;;;;;;;;;6264051;28;20295;-70
2023/06/15 15:11:46;;;;;;;9.45;3.88;;;;;;;;;;6253149;28;20240;-70
2023/06/15 15:14:53;;;;;;;10.85;4.18;;;;;;;;;;6263852;28;20300;-69
2023/06/15 15:17:58;;;;;;;9.05;4.45;;;;;;;;;;6263764;28;20240;-70
2023/06/15 15:21:02;;;;;;;11.52;4.45;;;;;;;;;;6263270;28;20303;-72
2023/06/15 15:24:08;;;;;;;5.57;4.18;;;;;;;;;;6263264;28;20295;-70
2023/06/15 15:27:13;;;;;;;4.35;4.05;;;;;;;;;;6262541;28;20291;-70
2023/06/15 15:30:21;;;;;;;7.13;3.92;;;;;;;;;;6277653;28;20298;-69
2023/06/15 15:33:26;;;;;;;7.03;4.28;;;;;;;;;;6288089;28;20425;-70
2023/06/15 15:36:30;;;;;;;7.03;4.20;;;;;;;;;;6288877;28;20240;-69
2023/06/15 15:39:35;;;;;;;10.90;4.07;;;;;;;;;;6286494;28;20456;-69
2023/06/15 15:42:40;;;;;;;6.90;3.80;;;;;;;;;;6288197;28;20267;-69
2023/06/15 15:45:46;;;;;;;5.85;4.35;;;;;;;;;;6287758;28;20302;-68
2023/06/15 15:48:50;;;;;;;6.47;4.68;;;;;;;;;;6287684;28;20288;-71
2023/06/15 15:51:55;;;;;;;8.10;4.60;;;;;;;;;;6287941;28;20248;-69
2023/06/15 15:55:00;;;;;;;8.48;4.65;;;;;;;;;;6288327;28;20287;-69
2023/06/15 15:58:04;;;;;;;5.25;4.75;;;;;;;;;;6287858;28;20247;-70
2023/06/15 16:01:10;;;;;;;5.00;4.57;;;;;;;;;;6287397;28;20298;-70
2023/06/15 16:04:15;;;;;;;5.30;4.20;;;;;;;;;;6286781;28;20602;-69
2023/06/15 16:07:19;;;;;;;8.57;5.03;;;;;;;;;;6288075;28;20235;-68
2023/06/15 16:10:26;;;;;;;4.82;4.10;;;;;;;;;;6284433;28;20453;-69
2023/06/15 16:13:31;;;;;;;11.27;4.40;;;;;;;;;;6286686;28;20330;-70
2023/06/15 16:16:37;;;;;;;36.95;5.93;;;;;;;;;;6287325;28;20519;-69
2023/06/15 16:19:42;;;;;;;7.53;3.70;;;;;;;;;;6286664;28;20299;-70
2023/06/15 16:22:46;;;;;;;12.48;4.40;;;;;;;;;;6287264;28;20266;-69
2023/06/15 16:25:52;;;;;;;4.60;4.20;;;;;;;;;;6286495;28;20298;-70
2023/06/15 16:28:57;;;;;;;17.15;4.60;;;;;;;;;;6301008;28;20303;-69
2023/06/15 16:32:03;;;;;;;5.10;4.18;;;;;;;;;;6286587;28;20418;-69
2023/06/15 16:35:08;;;;;;;21.58;4.65;;;;;;;;;;6286177;28;20426;-70
2023/06/15 16:38:13;;;;;;;7.13;4.10;;;;;;;;;;6286398;28;20308;-69
2023/06/15 16:41:17;;;;;;;8.38;3.97;;;;;;;;;;6287033;28;20243;-70
2023/06/15 16:44:22;;;;;;;7.25;3.75;;;;;;;;;;6285877;28;20305;-69
2023/06/15 16:47:29;;;;;;;10.20;4.00;;;;;;;;;;6286856;28;20244;-71
2023/06/15 16:50:34;;;;;;;9.20;4.90;;;;;;;;;;6286648;28;20304;-69
2023/06/15 16:53:38;;;;;;;5.95;3.78;;;;;;;;;;6286310;28;20375;-69
2023/06/15 16:56:43;;;;;;;4.00;3.80;;;;;;;;;;6286535;28;20509;-70
2023/06/15 16:59:48;;;;;;;4.95;4.13;;;;;;;;;;6286081;28;20322;-70
2023/06/15 17:02:55;;;;;;;5.43;4.03;;;;;;;;;;6286185;28;20263;-70
2023/06/15 17:06:00;;;;;;;7.93;4.20;;;;;;;;;;6285834;28;20295;-69
2023/06/15 17:09:05;;;;;;;7.78;4.47;;;;;;;;;;6284611;28;20537;-70
2023/06/15 17:12:11;;;;;;;4.65;4.35;;;;;;;;;;6286175;28;20243;-70
2023/06/15 17:15:15;;;;;;;7.22;4.03;;;;;;;;;;6285751;28;20299;-70
2023/06/15 17:18:21;;;;;;;8.13;4.07;;;;;;;;;;6285672;28;20244;-70
2023/06/15 17:21:26;;;;;;;10.73;4.40;;;;;;;;;;6285985;28;20252;-71
2023/06/15 17:24:31;;;;;;;24.60;5.32;;;;;;;;;;6285375;28;20325;-71
2023/06/15 17:27:36;;;;;;;9.90;3.80;;;;;;;;;;6286295;28;20517;-70
2023/06/15 17:30:42;;;;;;;4.75;3.90;;;;;;;;;;6289322;28;20478;-69
2023/06/15 17:33:48;;;;;;;6.95;5.20;;;;;;;;;;6288057;28;20298;-70
2023/06/15 17:36:54;;;;;;;10.98;5.10;;;;;;;;;;6289592;28;20298;-69
2023/06/15 17:39:59;;;;;;;4.43;3.83;;;;;;;;;;6284898;28;20551;-69
2023/06/15 17:43:03;;;;;;;8.50;3.83;;;;;;;;;;6285780;28;20266;-69
2023/06/15 17:46:08;;;;;;;7.50;3.95;;;;;;;;;;6285264;28;20303;-69
2023/06/15 17:49:18;;;;;;;8.18;4.20;;;;;;;;;;6285041;28;20492;-69
2023/06/15 17:52:23;;;;;;;10.32;4.28;;;;;;;;;;6285408;28;20232;-69
2023/06/15 17:55:27;;;;;;;6.32;4.10;;;;;;;;;;6284464;28;20583;-69
2023/06/15 17:58:32;;;;;;;4.18;3.97;;;;;;;;;;6284840;28;20563;-70
2023/06/15 18:01:36;;;;;;;11.38;4.45;;;;;;;;;;6283664;28;20428;-69
2023/06/15 18:04:42;;;;;;;5.20;4.28;;;;;;;;;;6284789;28;20590;-70
2023/06/15 18:07:47;;;;;;;10.23;5.10;;;;;;;;;;6284567;28;20239;-69
2023/06/15 18:10:51;;;;;;;17.27;4.38;;;;;;;;;;6284613;28;20302;-70
2023/06/15 18:13:56;;;;;;;8.95;4.60;;;;;;;;;;6284273;28;20290;-69
2023/06/15 18:17:01;;;;;;;15.07;4.70;;;;;;;;;;6284917;28;20377;-70
2023/06/15 18:20:07;;;;;;;6.10;4.22;;;;;;;;;;6284687;28;20367;-71
2023/06/15 18:23:13;;;;;;;7.50;4.20;;;;;;;;;;6284467;28;20239;-71
2023/06/15 18:26:17;;;;;;;12.77;4.57;;;;;;;;;;6283824;28;20347;-71
2023/06/15 18:29:22;;;;;;;9.30;4.22;;;;;;;;;;6284451;28;20299;-70
2023/06/15 18:32:26;;;;;;;10.13;4.28;;;;;;;;;;6285796;28;20527;-69